KNJK/NJK METAR and TAF weather

Enter ICAO airport designator
Station Type Date Time Source
KNJK METAR 2020/07/11 18:56 UTC NOAA

KNJK 111856Z 10005KT 10SM BKN250 39/12 A2988 RMK SLP134 T03890122


Station Type Date Time Source
KNJK Decoded METAR 2020/07/11 18:56 UTC NOAA

El Centro, Naval Air Facility, CA, United States (KNJK) 32-49-30N 115-39-38W -13M
Jul 11, 2020 - 02:56 PM EDT / 2020.07.11 1856 UTC
Wind: from the E (100 degrees) at 6 MPH (5 KT):0
Visibility: 10 mile(s):0
Sky conditions: mostly cloudy
Temperature: 102.0 F (38.9 C)
Heat index: 100.0 F (37.8 C):1
Dew Point: 54.0 F (12.2 C)
Relative Humidity: 20%
Pressure (altimeter): 29.88 in. Hg (1011 hPa)
ob: KNJK 111856Z 10005KT 10SM BKN250 39/12 A2988 RMK SLP134 T03890122
cycle: 19

Station Type Date Time Source
KNJK TAF 2020/07/11 15:12 UTC NOAA

TAF KNJK 1115/1215 VRB06KT 9999 FEW250 QNH2974INS T46/1123Z T26/1213Z FS30148

Example: see airport list